sensor_id;sensor_type;location;lat;lon;timestamp;pressure;altitude;pressure_sealevel;temperature;humidity
49102;BME280;34913;47.520;19.186;2022-12-24T00:01:14;99300.88;;;3.84;100.00
49102;BME280;34913;47.520;19.186;2022-12-24T00:03:40;99286.28;;;3.80;100.00
49102;BME280;34913;47.520;19.186;2022-12-24T00:06:07;99250.78;;;3.75;100.00
49102;BME280;34913;47.520;19.186;2022-12-24T00:08:32;99260.16;;;3.91;100.00
49102;BME280;34913;47.520;19.186;2022-12-24T00:10:58;99267.97;;;4.06;100.00
49102;BME280;34913;47.520;19.186;2022-12-24T00:13:23;99277.00;;;4.14;100.00
49102;BME280;34913;47.520;19.186;2022-12-24T00:15:49;99281.63;;;4.24;100.00
49102;BME280;34913;47.520;19.186;2022-12-24T00:18:15;99291.72;;;4.30;100.00
49102;BME280;34913;47.520;19.186;2022-12-24T00:20:40;99271.34;;;4.20;100.00
49102;BME280;34913;47.520;19.186;2022-12-24T00:23:06;99277.19;;;4.24;100.00
49102;BME280;34913;47.520;19.186;2022-12-24T00:25:31;99284.34;;;4.22;100.00
49102;BME280;34913;47.520;19.186;2022-12-24T00:27:57;99296.53;;;4.23;100.00
49102;BME280;34913;47.520;19.186;2022-12-24T00:30:22;99295.69;;;4.23;100.00
49102;BME280;34913;47.520;19.186;2022-12-24T00:32:48;99303.06;;;4.30;100.00
49102;BME280;34913;47.520;19.186;2022-12-24T00:35:13;99291.81;;;4.28;100.00
49102;BME280;34913;47.520;19.186;2022-12-24T00:37:39;99294.75;;;4.24;100.00
49102;BME280;34913;47.520;19.186;2022-12-24T00:40:04;99294.75;;;4.24;100.00
49102;BME280;34913;47.520;19.186;2022-12-24T00:42:30;99296.31;;;4.26;100.00
49102;BME280;34913;47.520;19.186;2022-12-24T00:44:55;99300.53;;;4.29;100.00
49102;BME280;34913;47.520;19.186;2022-12-24T00:47:21;99305.69;;;4.30;100.00
49102;BME280;34913;47.520;19.186;2022-12-24T00:49:46;99293.19;;;4.21;100.00
49102;BME280;34913;47.520;19.186;2022-12-24T00:52:11;99300.72;;;4.26;100.00
49102;BME280;34913;47.520;19.186;2022-12-24T00:54:37;99330.19;;;4.43;100.00
49102;BME280;34913;47.520;19.186;2022-12-24T00:57:02;99343.53;;;4.53;100.00
49102;BME280;34913;47.520;19.186;2022-12-24T00:59:28;99341.44;;;4.58;100.00
49102;BME280;34913;47.520;19.186;2022-12-24T01:01:53;99327.44;;;4.58;100.00
49102;BME280;34913;47.520;19.186;2022-12-24T01:04:18;99332.41;;;4.62;100.00
49102;BME280;34913;47.520;19.186;2022-12-24T01:07:02;99321.88;;;4.75;100.00
49102;BME280;34913;47.520;19.186;2022-12-24T01:09:28;99319.34;;;4.73;100.00
49102;BME280;34913;47.520;19.186;2022-12-24T01:11:53;99302.94;;;4.57;100.00
49102;BME280;34913;47.520;19.186;2022-12-24T01:14:19;99298.34;;;4.61;100.00
49102;BME280;34913;47.520;19.186;2022-12-24T01:16:44;99286.03;;;4.61;100.00
49102;BME280;34913;47.520;19.186;2022-12-24T01:19:10;99260.38;;;4.65;100.00
49102;BME280;34913;47.520;19.186;2022-12-24T01:21:35;99257.00;;;4.63;100.00
49102;BME280;34913;47.520;19.186;2022-12-24T01:24:01;99249.00;;;4.64;100.00
49102;BME280;34913;47.520;19.186;2022-12-24T01:26:26;99250.31;;;4.59;100.00
49102;BME280;34913;47.520;19.186;2022-12-24T01:28:52;99256.41;;;4.59;100.00
49102;BME280;34913;47.520;19.186;2022-12-24T01:31:18;99254.38;;;4.63;100.00
49102;BME280;34913;47.520;19.186;2022-12-24T01:33:45;99244.09;;;4.60;100.00
49102;BME280;34913;47.520;19.186;2022-12-24T01:36:12;99215.47;;;4.68;100.00
49102;BME280;34913;47.520;19.186;2022-12-24T01:38:37;99244.16;;;4.71;100.00
49102;BME280;34913;47.520;19.186;2022-12-24T01:41:03;99237.66;;;4.64;100.00
49102;BME280;34913;47.520;19.186;2022-12-24T01:43:47;99208.44;;;4.68;100.00
49102;BME280;34913;47.520;19.186;2022-12-24T01:46:28;99181.56;;;4.52;100.00
49102;BME280;34913;47.520;19.186;2022-12-24T01:49:01;99213.06;;;4.65;100.00
49102;BME280;34913;47.520;19.186;2022-12-24T01:54:14;99219.41;;;4.99;100.00
49102;BME280;34913;47.520;19.186;2022-12-24T01:56:51;99219.28;;;5.00;100.00
49102;BME280;34913;47.520;19.186;2022-12-24T01:59:18;99221.38;;;4.95;100.00
49102;BME280;34913;47.520;19.186;2022-12-24T02:01:47;99213.06;;;5.01;100.00
49102;BME280;34913;47.520;19.186;2022-12-24T02:06:57;99236.19;;;5.09;100.00
49102;BME280;34913;47.520;19.186;2022-12-24T02:09:23;99231.44;;;5.14;100.00
49102;BME280;34913;47.520;19.186;2022-12-24T02:11:49;99232.44;;;5.24;100.00
49102;BME280;34913;47.520;19.186;2022-12-24T02:14:15;99227.56;;;5.31;100.00
49102;BME280;34913;47.520;19.186;2022-12-24T02:22:14;99247.50;;;5.46;100.00
49102;BME280;34913;47.520;19.186;2022-12-24T02:30:09;99277.78;;;5.52;100.00
49102;BME280;34913;47.520;19.186;2022-12-24T02:32:59;99270.00;;;5.50;100.00
49102;BME280;34913;47.520;19.186;2022-12-24T02:38:02;99297.78;;;5.54;100.00
49102;BME280;34913;47.520;19.186;2022-12-24T02:40:49;99296.00;;;5.55;100.00
49102;BME280;34913;47.520;19.186;2022-12-24T02:43:20;99286.63;;;5.51;100.00
49102;BME280;34913;47.520;19.186;2022-12-24T02:45:52;99284.16;;;5.37;100.00
49102;BME280;34913;47.520;19.186;2022-12-24T02:48:20;99280.41;;;5.28;100.00
49102;BME280;34913;47.520;19.186;2022-12-24T02:50:57;99265.25;;;5.31;100.00
49102;BME280;34913;47.520;19.186;2022-12-24T02:53:23;99274.81;;;5.32;100.00
49102;BME280;34913;47.520;19.186;2022-12-24T02:59:18;99269.31;;;5.36;100.00
49102;BME280;34913;47.520;19.186;2022-12-24T03:06:52;99270.81;;;5.03;100.00
49102;BME280;34913;47.520;19.186;2022-12-24T03:09:45;99277.09;;;5.13;100.00
49102;BME280;34913;47.520;19.186;2022-12-24T03:12:21;99266.19;;;5.07;100.00
49102;BME280;34913;47.520;19.186;2022-12-24T03:14:49;99273.53;;;5.14;100.00
49102;BME280;34913;47.520;19.186;2022-12-24T03:17:17;99273.06;;;5.20;100.00
49102;BME280;34913;47.520;19.186;2022-12-24T03:19:43;99271.91;;;5.24;100.00
49102;BME280;34913;47.520;19.186;2022-12-24T03:22:09;99274.78;;;5.21;100.00
49102;BME280;34913;47.520;19.186;2022-12-24T03:24:36;99261.44;;;5.36;100.00
49102;BME280;34913;47.520;19.186;2022-12-24T03:27:04;99257.34;;;5.55;100.00
49102;BME280;34913;47.520;19.186;2022-12-24T03:29:31;99248.25;;;5.59;100.00
49102;BME280;34913;47.520;19.186;2022-12-24T03:32:02;99251.38;;;5.53;100.00
49102;BME280;34913;47.520;19.186;2022-12-24T03:34:29;99241.97;;;5.38;100.00
49102;BME280;34913;47.520;19.186;2022-12-24T03:36:55;99246.03;;;5.42;100.00
49102;BME280;34913;47.520;19.186;2022-12-24T03:39:20;99236.22;;;5.44;100.00
49102;BME280;34913;47.520;19.186;2022-12-24T03:41:46;99231.66;;;5.35;100.00
49102;BME280;34913;47.520;19.186;2022-12-24T03:44:12;99249.31;;;5.46;100.00
49102;BME280;34913;47.520;19.186;2022-12-24T03:46:38;99250.63;;;5.51;100.00
49102;BME280;34913;47.520;19.186;2022-12-24T03:49:03;99252.22;;;5.54;100.00
49102;BME280;34913;47.520;19.186;2022-12-24T03:51:29;99254.50;;;5.58;100.00
49102;BME280;34913;47.520;19.186;2022-12-24T03:53:57;99264.41;;;5.55;100.00
49102;BME280;34913;47.520;19.186;2022-12-24T03:56:23;99268.16;;;5.40;100.00
49102;BME280;34913;47.520;19.186;2022-12-24T03:58:48;99275.22;;;5.39;100.00
49102;BME280;34913;47.520;19.186;2022-12-24T04:01:15;99291.50;;;5.44;100.00
49102;BME280;34913;47.520;19.186;2022-12-24T04:03:41;99284.25;;;5.48;100.00
49102;BME280;34913;47.520;19.186;2022-12-24T04:06:11;99281.03;;;5.55;100.00
49102;BME280;34913;47.520;19.186;2022-12-24T04:08:38;99288.09;;;5.55;100.00
49102;BME280;34913;47.520;19.186;2022-12-24T04:11:05;99293.22;;;5.45;100.00
49102;BME280;34913;47.520;19.186;2022-12-24T04:13:31;99291.72;;;5.41;100.00
49102;BME280;34913;47.520;19.186;2022-12-24T04:16:05;99268.94;;;5.29;100.00
49102;BME280;34913;47.520;19.186;2022-12-24T04:18:32;99285.31;;;5.45;100.00
49102;BME280;34913;47.520;19.186;2022-12-24T04:20:58;99284.00;;;5.51;100.00
49102;BME280;34913;47.520;19.186;2022-12-24T04:23:23;99286.50;;;5.52;100.00
49102;BME280;34913;47.520;19.186;2022-12-24T04:25:49;99288.72;;;5.58;100.00
49102;BME280;34913;47.520;19.186;2022-12-24T04:28:15;99277.22;;;5.59;100.00
49102;BME280;34913;47.520;19.186;2022-12-24T04:30:41;99282.28;;;5.63;100.00
49102;BME280;34913;47.520;19.186;2022-12-24T04:33:06;99286.59;;;5.64;100.00
49102;BME280;34913;47.520;19.186;2022-12-24T04:35:32;99295.25;;;5.53;100.00
49102;BME280;34913;47.520;19.186;2022-12-24T04:37:57;99283.22;;;5.38;100.00
49102;BME280;34913;47.520;19.186;2022-12-24T04:40:23;99288.38;;;5.39;100.00
49102;BME280;34913;47.520;19.186;2022-12-24T04:42:49;99269.59;;;5.20;100.00
49102;BME280;34913;47.520;19.186;2022-12-24T04:45:18;99283.59;;;5.20;100.00
49102;BME280;34913;47.520;19.186;2022-12-24T04:47:43;99286.22;;;5.20;100.00
49102;BME280;34913;47.520;19.186;2022-12-24T04:50:09;99278.88;;;5.13;100.00
49102;BME280;34913;47.520;19.186;2022-12-24T04:52:35;99281.19;;;5.17;100.00
49102;BME280;34913;47.520;19.186;2022-12-24T04:55:02;99284.38;;;5.10;100.00
49102;BME280;34913;47.520;19.186;2022-12-24T04:57:30;99300.38;;;5.07;100.00
49102;BME280;34913;47.520;19.186;2022-12-24T04:59:56;99301.41;;;5.04;100.00
49102;BME280;34913;47.520;19.186;2022-12-24T05:02:21;99292.38;;;4.95;100.00
49102;BME280;34913;47.520;19.186;2022-12-24T05:04:47;99300.28;;;4.95;100.00
49102;BME280;34913;47.520;19.186;2022-12-24T05:07:12;99294.28;;;4.93;100.00
49102;BME280;34913;47.520;19.186;2022-12-24T05:09:38;99293.75;;;5.01;100.00
49102;BME280;34913;47.520;19.186;2022-12-24T05:12:03;99313.22;;;4.98;100.00
49102;BME280;34913;47.520;19.186;2022-12-24T05:14:29;99312.81;;;4.92;100.00
49102;BME280;34913;47.520;19.186;2022-12-24T05:16:54;99302.72;;;4.98;100.00
49102;BME280;34913;47.520;19.186;2022-12-24T05:19:20;99302.13;;;4.82;100.00
49102;BME280;34913;47.520;19.186;2022-12-24T05:21:45;99302.00;;;4.84;100.00
49102;BME280;34913;47.520;19.186;2022-12-24T05:24:30;99310.81;;;4.95;100.00
49102;BME280;34913;47.520;19.186;2022-12-24T05:27:14;99291.47;;;4.84;100.00
49102;BME280;34913;47.520;19.186;2022-12-24T05:29:40;99319.63;;;4.94;100.00
49102;BME280;34913;47.520;19.186;2022-12-24T05:32:05;99324.59;;;4.86;100.00
49102;BME280;34913;47.520;19.186;2022-12-24T05:34:30;99327.00;;;4.89;100.00
49102;BME280;34913;47.520;19.186;2022-12-24T05:36:56;99328.47;;;4.93;100.00
49102;BME280;34913;47.520;19.186;2022-12-24T05:39:21;99330.81;;;4.98;100.00
49102;BME280;34913;47.520;19.186;2022-12-24T05:41:46;99323.53;;;5.01;100.00
49102;BME280;34913;47.520;19.186;2022-12-24T05:44:12;99318.81;;;4.94;100.00
49102;BME280;34913;47.520;19.186;2022-12-24T05:46:39;99311.75;;;4.82;100.00
49102;BME280;34913;47.520;19.186;2022-12-24T05:49:04;99319.66;;;4.82;100.00
49102;BME280;34913;47.520;19.186;2022-12-24T05:51:29;99325.25;;;4.77;100.00
49102;BME280;34913;47.520;19.186;2022-12-24T05:53:55;99307.38;;;4.69;100.00
49102;BME280;34913;47.520;19.186;2022-12-24T05:56:22;99319.69;;;4.69;100.00
49102;BME280;34913;47.520;19.186;2022-12-24T05:58:49;99311.78;;;4.69;100.00
49102;BME280;34913;47.520;19.186;2022-12-24T06:01:15;99331.22;;;4.79;100.00
49102;BME280;34913;47.520;19.186;2022-12-24T06:03:40;99331.94;;;4.81;100.00
49102;BME280;34913;47.520;19.186;2022-12-24T06:06:11;99335.09;;;4.73;100.00
49102;BME280;34913;47.520;19.186;2022-12-24T06:08:38;99329.13;;;4.71;100.00
49102;BME280;34913;47.520;19.186;2022-12-24T06:11:07;99321.25;;;4.71;100.00
49102;BME280;34913;47.520;19.186;2022-12-24T06:13:33;99331.22;;;4.79;100.00
49102;BME280;34913;47.520;19.186;2022-12-24T06:16:00;99320.72;;;4.79;100.00
49102;BME280;34913;47.520;19.186;2022-12-24T06:18:28;99327.44;;;4.83;100.00
49102;BME280;34913;47.520;19.186;2022-12-24T06:20:54;99316.41;;;4.78;100.00
49102;BME280;34913;47.520;19.186;2022-12-24T06:23:21;99323.88;;;4.71;100.00
49102;BME280;34913;47.520;19.186;2022-12-24T06:25:47;99338.69;;;4.72;100.00
49102;BME280;34913;47.520;19.186;2022-12-24T06:28:13;99346.72;;;4.58;100.00
49102;BME280;34913;47.520;19.186;2022-12-24T06:30:38;99343.84;;;4.61;100.00
49102;BME280;34913;47.520;19.186;2022-12-24T06:33:04;99342.69;;;4.65;100.00
49102;BME280;34913;47.520;19.186;2022-12-24T06:35:33;99356.78;;;4.64;100.00
49102;BME280;34913;47.520;19.186;2022-12-24T06:37:58;99359.19;;;4.80;100.00
49102;BME280;34913;47.520;19.186;2022-12-24T06:40:25;99335.56;;;4.67;100.00
49102;BME280;34913;47.520;19.186;2022-12-24T06:42:50;99353.19;;;4.65;100.00
49102;BME280;34913;47.520;19.186;2022-12-24T06:45:16;99370.38;;;4.58;100.00
49102;BME280;34913;47.520;19.186;2022-12-24T06:47:41;99370.13;;;4.48;100.00
49102;BME280;34913;47.520;19.186;2022-12-24T06:50:07;99372.00;;;4.46;100.00
49102;BME280;34913;47.520;19.186;2022-12-24T06:52:33;99386.44;;;4.54;100.00
49102;BME280;34913;47.520;19.186;2022-12-24T06:54:58;99384.84;;;4.64;100.00
49102;BME280;34913;47.520;19.186;2022-12-24T06:57:24;99384.97;;;4.62;100.00
49102;BME280;34913;47.520;19.186;2022-12-24T06:59:49;99385.69;;;4.64;100.00
49102;BME280;34913;47.520;19.186;2022-12-24T07:02:14;99382.66;;;4.70;100.00
49102;BME280;34913;47.520;19.186;2022-12-24T07:04:40;99371.63;;;4.78;100.00
49102;BME280;34913;47.520;19.186;2022-12-24T07:07:05;99390.03;;;4.91;100.00
49102;BME280;34913;47.520;19.186;2022-12-24T07:09:31;99414.28;;;4.82;100.00
49102;BME280;34913;47.520;19.186;2022-12-24T07:11:56;99405.50;;;4.83;100.00
49102;BME280;34913;47.520;19.186;2022-12-24T07:14:22;99403.47;;;4.73;100.00
49102;BME280;34913;47.520;19.186;2022-12-24T07:16:47;99406.31;;;4.70;100.00
49102;BME280;34913;47.520;19.186;2022-12-24T07:19:13;99394.22;;;4.68;100.00
49102;BME280;34913;47.520;19.186;2022-12-24T07:21:39;99403.19;;;4.91;100.00
49102;BME280;34913;47.520;19.186;2022-12-24T07:24:04;99398.84;;;4.77;100.00
49102;BME280;34913;47.520;19.186;2022-12-24T07:26:30;99418.72;;;4.81;100.00
49102;BME280;34913;47.520;19.186;2022-12-24T07:28:55;99407.25;;;4.69;100.00
49102;BME280;34913;47.520;19.186;2022-12-24T07:31:21;99417.88;;;4.81;100.00
49102;BME280;34913;47.520;19.186;2022-12-24T07:33:46;99417.28;;;4.90;100.00
49102;BME280;34913;47.520;19.186;2022-12-24T07:36:20;99397.38;;;4.86;100.00
49102;BME280;34913;47.520;19.186;2022-12-24T07:38:46;99425.03;;;5.04;100.00
49102;BME280;34913;47.520;19.186;2022-12-24T07:41:12;99430.59;;;5.12;100.00
49102;BME280;34913;47.520;19.186;2022-12-24T07:43:37;99441.88;;;5.01;100.00
49102;BME280;34913;47.520;19.186;2022-12-24T07:46:03;99432.19;;;5.02;100.00
49102;BME280;34913;47.520;19.186;2022-12-24T07:48:29;99447.66;;;5.07;100.00
49102;BME280;34913;47.520;19.186;2022-12-24T07:50:56;99428.53;;;4.92;100.00
49102;BME280;34913;47.520;19.186;2022-12-24T07:53:22;99445.34;;;5.02;100.00
49102;BME280;34913;47.520;19.186;2022-12-24T07:55:47;99452.09;;;5.06;100.00
49102;BME280;34913;47.520;19.186;2022-12-24T07:58:13;99440.59;;;4.94;100.00
49102;BME280;34913;47.520;19.186;2022-12-24T08:00:38;99460.50;;;4.98;100.00
49102;BME280;34913;47.520;19.186;2022-12-24T08:03:03;99455.00;;;4.89;100.00
49102;BME280;34913;47.520;19.186;2022-12-24T08:05:34;99448.50;;;4.94;100.00
49102;BME280;34913;47.520;19.186;2022-12-24T08:07:59;99451.25;;;5.06;100.00
49102;BME280;34913;47.520;19.186;2022-12-24T08:10:25;99460.50;;;5.11;100.00
49102;BME280;34913;47.520;19.186;2022-12-24T08:12:50;99469.97;;;5.14;100.00
49102;BME280;34913;47.520;19.186;2022-12-24T08:15:16;99469.13;;;5.13;100.00
49102;BME280;34913;47.520;19.186;2022-12-24T08:17:41;99460.38;;;5.13;100.00
49102;BME280;34913;47.520;19.186;2022-12-24T08:20:07;99482.59;;;5.34;100.00
49102;BME280;34913;47.520;19.186;2022-12-24T08:22:33;99490.91;;;5.53;100.00
49102;BME280;34913;47.520;19.186;2022-12-24T08:24:58;99498.41;;;5.96;100.00
49102;BME280;34913;47.520;19.186;2022-12-24T08:27:23;99495.94;;;6.19;100.00
49102;BME280;34913;47.520;19.186;2022-12-24T08:29:49;99517.47;;;6.60;100.00
49102;BME280;34913;47.520;19.186;2022-12-24T08:32:14;99511.47;;;6.93;100.00
49102;BME280;34913;47.520;19.186;2022-12-24T08:34:40;99519.69;;;7.24;100.00
49102;BME280;34913;47.520;19.186;2022-12-24T08:37:05;99527.28;;;7.40;100.00
49102;BME280;34913;47.520;19.186;2022-12-24T08:39:31;99530.66;;;7.64;100.00
49102;BME280;34913;47.520;19.186;2022-12-24T08:41:56;99519.97;;;7.77;100.00
49102;BME280;34913;47.520;19.186;2022-12-24T08:44:22;99536.91;;;7.97;100.00
49102;BME280;34913;47.520;19.186;2022-12-24T08:46:47;99539.16;;;8.12;100.00
49102;BME280;34913;47.520;19.186;2022-12-24T08:49:12;99531.94;;;8.26;100.00
49102;BME280;34913;47.520;19.186;2022-12-24T08:51:38;99550.09;;;8.42;100.00
49102;BME280;34913;47.520;19.186;2022-12-24T08:54:04;99550.03;;;8.53;100.00
49102;BME280;34913;47.520;19.186;2022-12-24T08:56:29;99547.78;;;8.48;100.00
49102;BME280;34913;47.520;19.186;2022-12-24T08:58:54;99557.03;;;8.54;100.00
49102;BME280;34913;47.520;19.186;2022-12-24T09:01:20;99553.66;;;8.52;100.00
49102;BME280;34913;47.520;19.186;2022-12-24T09:03:46;99557.13;;;8.52;100.00
49102;BME280;34913;47.520;19.186;2022-12-24T09:06:12;99556.31;;;8.52;100.00
49102;BME280;34913;47.520;19.186;2022-12-24T09:08:38;99560.03;;;8.49;100.00
49102;BME280;34913;47.520;19.186;2022-12-24T09:11:12;99555.72;;;8.48;100.00
49102;BME280;34913;47.520;19.186;2022-12-24T09:13:38;99531.09;;;8.36;100.00
49102;BME280;34913;47.520;19.186;2022-12-24T09:16:04;99561.25;;;8.45;100.00
49102;BME280;34913;47.520;19.186;2022-12-24T09:18:30;99561.00;;;8.48;100.00
49102;BME280;34913;47.520;19.186;2022-12-24T09:21:04;99574.09;;;8.50;100.00
49102;BME280;34913;47.520;19.186;2022-12-24T09:23:30;99584.69;;;8.50;100.00
49102;BME280;34913;47.520;19.186;2022-12-24T09:25:57;99584.69;;;8.50;100.00
49102;BME280;34913;47.520;19.186;2022-12-24T09:28:23;99586.59;;;8.59;100.00
49102;BME280;34913;47.520;19.186;2022-12-24T09:30:59;99587.19;;;8.62;100.00
49102;BME280;34913;47.520;19.186;2022-12-24T09:33:30;99587.63;;;8.67;100.00
49102;BME280;34913;47.520;19.186;2022-12-24T09:35:56;99575.16;;;8.70;100.00
49102;BME280;34913;47.520;19.186;2022-12-24T09:38:22;99588.47;;;8.79;100.00
49102;BME280;34913;47.520;19.186;2022-12-24T09:40:48;99570.91;;;8.78;100.00
49102;BME280;34913;47.520;19.186;2022-12-24T09:43:16;99578.78;;;8.89;100.00
49102;BME280;34913;47.520;19.186;2022-12-24T09:48:48;99576.22;;;8.99;100.00
49102;BME280;34913;47.520;19.186;2022-12-24T09:51:26;99578.09;;;9.08;100.00
49102;BME280;34913;47.520;19.186;2022-12-24T09:53:54;99579.88;;;9.19;100.00
49102;BME280;34913;47.520;19.186;2022-12-24T09:56:29;99579.09;;;9.28;100.00
49102;BME280;34913;47.520;19.186;2022-12-24T09:59:09;99573.16;;;9.36;100.00
49102;BME280;34913;47.520;19.186;2022-12-24T10:01:35;99572.88;;;9.39;100.00
49102;BME280;34913;47.520;19.186;2022-12-24T10:04:04;99572.38;;;9.45;100.00
49102;BME280;34913;47.520;19.186;2022-12-24T10:11:59;99571.59;;;9.54;99.70
49102;BME280;34913;47.520;19.186;2022-12-24T10:20:21;99603.09;;;9.99;94.46
49102;BME280;34913;47.520;19.186;2022-12-24T10:27:58;99596.66;;;10.01;94.82
49102;BME280;34913;47.520;19.186;2022-12-24T10:30:25;99595.50;;;9.94;96.53
49102;BME280;34913;47.520;19.186;2022-12-24T10:32:52;99601.41;;;9.98;96.77
49102;BME280;34913;47.520;19.186;2022-12-24T10:35:25;99599.41;;;9.90;97.98
49102;BME280;34913;47.520;19.186;2022-12-24T10:37:53;99597.78;;;9.99;96.15
49102;BME280;34913;47.520;19.186;2022-12-24T10:40:31;99609.69;;;10.04;96.92
49102;BME280;34913;47.520;19.186;2022-12-24T10:42:59;99613.88;;;10.07;97.95
49102;BME280;34913;47.520;19.186;2022-12-24T10:45:33;99620.72;;;10.10;97.30
49102;BME280;34913;47.520;19.186;2022-12-24T10:48:04;99613.06;;;10.16;96.26
49102;BME280;34913;47.520;19.186;2022-12-24T10:50:38;99615.09;;;10.24;95.17
49102;BME280;34913;47.520;19.186;2022-12-24T10:53:41;99617.59;;;10.25;96.63
49102;BME280;34913;47.520;19.186;2022-12-24T10:56:10;99615.91;;;10.24;95.13
49102;BME280;34913;47.520;19.186;2022-12-24T10:58:42;99613.25;;;10.24;95.81
49102;BME280;34913;47.520;19.186;2022-12-24T11:01:08;99609.63;;;10.25;93.09
49102;BME280;34913;47.520;19.186;2022-12-24T11:03:35;99623.50;;;10.39;91.93
49102;BME280;34913;47.520;19.186;2022-12-24T11:06:15;99615.88;;;10.55;90.21
49102;BME280;34913;47.520;19.186;2022-12-24T11:08:45;99616.19;;;10.61;89.15
49102;BME280;34913;47.520;19.186;2022-12-24T11:11:15;99622.09;;;10.75;87.60
49102;BME280;34913;47.520;19.186;2022-12-24T11:16:33;99621.81;;;10.78;85.54
49102;BME280;34913;47.520;19.186;2022-12-24T11:19:04;99618.47;;;10.95;84.54
49102;BME280;34913;47.520;19.186;2022-12-24T11:21:32;99626.56;;;11.03;81.94
49102;BME280;34913;47.520;19.186;2022-12-24T11:26:32;99642.94;;;11.18;79.79
49102;BME280;34913;47.520;19.186;2022-12-24T11:29:11;99632.88;;;11.31;77.72
49102;BME280;34913;47.520;19.186;2022-12-24T11:31:37;99625.31;;;11.27;79.05
49102;BME280;34913;47.520;19.186;2022-12-24T11:34:24;99642.81;;;11.39;73.56
49102;BME280;34913;47.520;19.186;2022-12-24T11:36:50;99639.03;;;11.41;73.41
49102;BME280;34913;47.520;19.186;2022-12-24T11:39:24;99634.00;;;11.38;72.63
49102;BME280;34913;47.520;19.186;2022-12-24T11:41:51;99634.69;;;11.40;70.64
49102;BME280;34913;47.520;19.186;2022-12-24T11:44:27;99649.38;;;11.35;72.21
49102;BME280;34913;47.520;19.186;2022-12-24T11:46:54;99644.47;;;11.21;72.86
49102;BME280;34913;47.520;19.186;2022-12-24T11:54:42;99644.47;;;11.21;70.80
49102;BME280;34913;47.520;19.186;2022-12-24T11:57:12;99652.31;;;11.22;71.96
49102;BME280;34913;47.520;19.186;2022-12-24T11:59:42;99651.22;;;11.15;71.01
49102;BME280;34913;47.520;19.186;2022-12-24T12:02:17;99651.47;;;11.12;69.60
49102;BME280;34913;47.520;19.186;2022-12-24T12:04:49;99646.28;;;11.20;68.77
49102;BME280;34913;47.520;19.186;2022-12-24T12:07:33;99656.66;;;11.23;69.53
49102;BME280;34913;47.520;19.186;2022-12-24T12:10:31;99651.34;;;11.23;68.75
49102;BME280;34913;47.520;19.186;2022-12-24T12:13:15;99665.47;;;11.33;68.16
49102;BME280;34913;47.520;19.186;2022-12-24T12:18:34;99673.59;;;11.32;69.25
49102;BME280;34913;47.520;19.186;2022-12-24T12:21:08;99684.06;;;11.33;68.25
49102;BME280;34913;47.520;19.186;2022-12-24T12:23:43;99676.94;;;11.34;67.77
49102;BME280;34913;47.520;19.186;2022-12-24T12:26:16;99685.88;;;11.33;67.22
49102;BME280;34913;47.520;19.186;2022-12-24T12:28:56;99682.94;;;11.36;67.80
49102;BME280;34913;47.520;19.186;2022-12-24T12:31:29;99682.09;;;11.45;66.62
49102;BME280;34913;47.520;19.186;2022-12-24T12:36:39;99676.94;;;11.34;67.48
49102;BME280;34913;47.520;19.186;2022-12-24T12:39:08;99683.91;;;11.35;67.69
49102;BME280;34913;47.520;19.186;2022-12-24T12:56:09;99716.91;;;11.23;68.61
49102;BME280;34913;47.520;19.186;2022-12-24T12:58:16;99712.69;;;11.01;68.24
49102;BME280;34913;47.520;19.186;2022-12-24T13:00:46;99732.25;;;11.00;69.34
49102;BME280;34913;47.520;19.186;2022-12-24T13:06:12;99736.25;;;10.84;69.73
49102;BME280;34913;47.520;19.186;2022-12-24T13:12:18;99739.72;;;10.75;71.31
49102;BME280;34913;47.520;19.186;2022-12-24T13:20:27;99755.34;;;10.69;72.49
49102;BME280;34913;47.520;19.186;2022-12-24T13:23:00;99770.84;;;10.73;72.30
49102;BME280;34913;47.520;19.186;2022-12-24T13:25:43;99761.66;;;10.77;72.61
49102;BME280;34913;47.520;19.186;2022-12-24T13:33:54;99764.53;;;11.05;72.25
49102;BME280;34913;47.520;19.186;2022-12-24T13:36:20;99763.56;;;11.06;71.88
49102;BME280;34913;47.520;19.186;2022-12-24T13:38:56;99770.84;;;11.13;72.29
49102;BME280;34913;47.520;19.186;2022-12-24T13:46:51;99773.50;;;11.13;72.63
49102;BME280;34913;47.520;19.186;2022-12-24T13:49:30;99783.72;;;11.08;72.86
49102;BME280;34913;47.520;19.186;2022-12-24T13:52:23;99788.19;;;11.08;72.86
49102;BME280;34913;47.520;19.186;2022-12-24T14:00:00;99798.34;;;11.03;73.42
49102;BME280;34913;47.520;19.186;2022-12-24T14:02:28;99797.34;;;10.94;73.90
49102;BME280;34913;47.520;19.186;2022-12-24T14:04:59;99800.41;;;10.89;74.47
49102;BME280;34913;47.520;19.186;2022-12-24T14:07:26;99796.19;;;10.87;73.87
49102;BME280;34913;47.520;19.186;2022-12-24T14:09:52;99796.47;;;10.84;73.96
49102;BME280;34913;47.520;19.186;2022-12-24T14:12:32;99806.66;;;10.79;73.33
49102;BME280;34913;47.520;19.186;2022-12-24T14:18:02;99811.91;;;10.69;75.04
49102;BME280;34913;47.520;19.186;2022-12-24T14:20:31;99804.75;;;10.60;74.93
49102;BME280;34913;47.520;19.186;2022-12-24T14:22:57;99811.13;;;10.57;75.55
49102;BME280;34913;47.520;19.186;2022-12-24T14:25:24;99810.13;;;10.49;76.70
49102;BME280;34913;47.520;19.186;2022-12-24T14:27:58;99826.38;;;10.55;77.70
49102;BME280;34913;47.520;19.186;2022-12-24T14:30:29;99828.56;;;10.50;77.10
49102;BME280;34913;47.520;19.186;2022-12-24T14:32:55;99838.53;;;10.58;77.07
49102;BME280;34913;47.520;19.186;2022-12-24T14:35:29;99840.09;;;10.60;77.59
49102;BME280;34913;47.520;19.186;2022-12-24T14:38:27;99849.97;;;10.58;77.77
49102;BME280;34913;47.520;19.186;2022-12-24T14:41:03;99849.69;;;10.52;77.59
49102;BME280;34913;47.520;19.186;2022-12-24T14:49:11;99875.63;;;10.48;77.99
49102;BME280;34913;47.520;19.186;2022-12-24T14:54:39;99878.78;;;10.42;79.21